< < Back
Terminal Aerodrome Forecast


Current Version              Previous Versions:   1  2  3  4  5  6  7  8  9  

Terminal Aerodrome Forecast

193
FTUS44 KMOB 251700
TAFMOB
TAF
KMOB 251738Z 2518/2618 22014G26KT P6SM SKC
     FM260300 28010G15KT P6SM SCT050
     FM260900 31010KT P6SM SCT025
     FM261500 32015G25KT P6SM SCT025=

Latest METAR

050
SAUS80 KWBC 260400 CCA
MTRMOB
METAR KMOB 260356Z 27004KT 10SM FEW080 10/04 A2989 RMK AO2 SLP122
T01000039


USA.gov is the U.S. government's official web portal to all federal, state and local government web resources and services.